createdAt,value
2023-05-24T00:01:52.825Z,27.74
2023-05-24T00:04:42.063Z,26.66
2023-05-24T00:07:12.738Z,28.15
2023-05-24T00:09:43.335Z,28.86
2023-05-24T00:12:13.808Z,27.00
2023-05-24T00:14:44.358Z,27.72
2023-05-24T00:17:14.763Z,28.34
2023-05-24T00:19:45.226Z,27.80
2023-05-24T00:22:15.682Z,24.13
2023-05-24T00:24:46.124Z,23.51
2023-05-24T00:27:17.446Z,21.96
2023-05-24T00:29:48.094Z,25.06
2023-05-24T00:32:20.169Z,26.62
2023-05-24T00:34:54.312Z,25.85
2023-05-24T00:37:25.122Z,25.46
2023-05-24T00:39:55.751Z,26.64
2023-05-24T00:42:26.402Z,25.72
2023-05-24T00:44:56.990Z,24.92
2023-05-24T00:47:27.500Z,26.22
2023-05-24T00:49:58.614Z,24.55
2023-05-24T00:52:29.100Z,27.45
2023-05-24T00:55:00.107Z,28.30
2023-05-24T00:57:31.504Z,24.28
2023-05-24T01:00:02.592Z,24.02
2023-05-24T01:02:34.177Z,26.69
2023-05-24T01:05:05.951Z,25.67
2023-05-24T01:07:48.305Z,25.10
2023-05-24T01:10:24.034Z,26.40
2023-05-24T01:13:28.515Z,27.34
2023-05-24T01:16:07.348Z,27.19
2023-05-24T01:18:43.704Z,28.66
2023-05-24T01:21:16.025Z,27.37
2023-05-24T01:24:07.385Z,26.77
2023-05-24T01:26:45.221Z,28.42
2023-05-24T01:29:16.813Z,28.05
2023-05-24T01:31:47.667Z,27.19
2023-05-24T01:34:20.541Z,29.64
2023-05-24T01:36:51.651Z,29.31
2023-05-24T01:39:23.815Z,26.51
2023-05-24T01:42:25.624Z,26.38
2023-05-24T01:45:01.933Z,26.51
2023-05-24T01:48:13.685Z,29.56
2023-05-24T01:50:55.335Z,25.48
2023-05-24T01:53:34.280Z,29.79
2023-05-24T01:56:07.789Z,29.86
2023-05-24T01:58:40.809Z,30.25
2023-05-24T02:01:12.465Z,29.68
2023-05-24T02:03:43.404Z,30.38
2023-05-24T02:06:13.824Z,29.29
2023-05-24T02:08:44.278Z,30.59
2023-05-24T02:11:14.692Z,31.33
2023-05-24T02:13:45.386Z,31.86
2023-05-24T02:16:15.951Z,31.50
2023-05-24T02:19:04.321Z,32.09
2023-05-24T02:21:53.048Z,32.06
2023-05-24T02:24:23.574Z,30.05
2023-05-24T02:26:54.084Z,30.32
2023-05-24T02:29:25.282Z,30.28
2023-05-24T02:31:58.213Z,30.88
2023-05-24T02:34:29.026Z,31.47
2023-05-24T02:36:59.438Z,31.05
2023-05-24T02:39:30.194Z,32.25
2023-05-24T02:42:00.873Z,31.37
2023-05-24T02:44:31.338Z,30.93
2023-05-24T02:47:01.937Z,31.66
2023-05-24T02:49:32.453Z,30.44
2023-05-24T02:52:02.876Z,30.42
2023-05-24T02:54:33.184Z,30.37
2023-05-24T02:57:04.354Z,30.47
2023-05-24T02:59:36.090Z,30.59
2023-05-24T03:02:06.855Z,30.95
2023-05-24T03:04:37.370Z,28.88
2023-05-24T03:07:08.815Z,31.51
2023-05-24T03:09:39.281Z,31.09
2023-05-24T03:12:27.835Z,29.88
2023-05-24T03:14:58.497Z,30.37
2023-05-24T03:17:29.043Z,28.82
2023-05-24T03:19:59.593Z,29.89
2023-05-24T03:22:48.270Z,30.80
2023-05-24T03:25:18.794Z,30.62
2023-05-24T03:27:49.951Z,30.40
2023-05-24T03:30:21.895Z,29.93
2023-05-24T03:32:56.667Z,30.58
2023-05-24T03:35:27.293Z,31.26
2023-05-24T03:37:59.357Z,30.91
2023-05-24T03:40:34.074Z,29.83
2023-05-24T03:43:16.110Z,28.15
2023-05-24T03:45:53.704Z,31.50
2023-05-24T03:48:24.459Z,30.65
2023-05-24T03:50:55.490Z,29.74
2023-05-24T03:53:25.938Z,26.78
2023-05-24T03:55:57.616Z,25.68
2023-05-24T03:58:28.161Z,26.20
2023-05-24T04:00:58.739Z,26.86
2023-05-24T04:03:30.052Z,28.34
2023-05-24T04:06:00.570Z,26.80
2023-05-24T04:08:30.976Z,24.31
2023-05-24T04:11:01.446Z,21.59
2023-05-24T04:13:32.344Z,23.18
2023-05-24T04:16:02.890Z,23.80
2023-05-24T04:18:33.583Z,23.47
2023-05-24T04:21:04.134Z,22.38
2023-05-24T04:23:35.130Z,23.34
2023-05-24T04:26:05.596Z,23.24
2023-05-24T04:28:37.458Z,22.29
2023-05-24T04:31:11.543Z,23.93
2023-05-24T04:33:43.286Z,22.99
2023-05-24T04:36:14.881Z,22.75
2023-05-24T04:38:47.303Z,23.45
2023-05-24T04:41:17.829Z,23.75
2023-05-24T04:43:48.604Z,22.33
2023-05-24T04:46:18.953Z,23.31
2023-05-24T04:48:49.843Z,23.21
2023-05-24T04:51:20.601Z,22.84
2023-05-24T04:53:51.056Z,23.24
2023-05-24T04:56:21.655Z,24.17
2023-05-24T04:58:52.042Z,24.00
2023-05-24T05:01:23.216Z,22.83
2023-05-24T05:03:53.866Z,23.85
2023-05-24T05:06:24.431Z,21.67
2023-05-24T05:08:55.158Z,21.92
2023-05-24T05:11:25.632Z,21.84
2023-05-24T05:13:56.350Z,25.01
2023-05-24T05:16:26.918Z,23.57
2023-05-24T05:18:57.506Z,21.11
2023-05-24T05:21:28.069Z,21.86
2023-05-24T05:23:58.608Z,24.57
2023-05-24T05:26:32.612Z,20.56
2023-05-24T05:29:03.129Z,22.58
2023-05-24T05:31:33.606Z,20.60
2023-05-24T05:34:04.250Z,21.44
2023-05-24T05:36:34.853Z,20.78
2023-05-24T05:39:05.165Z,21.65
2023-05-24T05:41:35.547Z,21.69
2023-05-24T05:44:06.019Z,27.11
2023-05-24T05:46:36.519Z,23.22
2023-05-24T05:49:08.444Z,20.82
2023-05-24T05:51:40.351Z,22.48
2023-05-24T05:54:15.863Z,25.18
2023-05-24T05:56:49.482Z,21.50
2023-05-24T05:59:21.410Z,21.08
2023-05-24T06:01:52.438Z,22.23
2023-05-24T06:04:22.754Z,25.43
2023-05-24T06:06:53.666Z,25.61
2023-05-24T06:09:24.200Z,24.92
2023-05-24T06:11:54.631Z,24.52
2023-05-24T06:14:26.642Z,24.39
2023-05-24T06:16:58.090Z,24.83
2023-05-24T06:19:30.539Z,24.60
2023-05-24T06:22:01.817Z,23.98
2023-05-24T06:24:32.409Z,24.01
2023-05-24T06:27:05.265Z,23.98
2023-05-24T06:29:36.008Z,25.14
2023-05-24T06:32:07.123Z,25.30
2023-05-24T06:34:37.688Z,24.14
2023-05-24T06:37:11.804Z,22.95
2023-05-24T06:39:42.705Z,24.06
2023-05-24T06:42:13.165Z,23.63
2023-05-24T06:44:48.373Z,23.59
2023-05-24T06:47:19.150Z,24.43
2023-05-24T06:49:50.488Z,23.59
2023-05-24T06:52:20.902Z,24.07
2023-05-24T06:54:52.393Z,24.12
2023-05-24T06:57:23.274Z,24.43
2023-05-24T06:59:53.712Z,23.98
2023-05-24T07:02:28.122Z,24.46
2023-05-24T07:04:58.717Z,24.43
2023-05-24T07:07:29.150Z,24.48
2023-05-24T07:09:59.729Z,24.57
2023-05-24T07:12:30.194Z,24.18
2023-05-24T07:15:00.772Z,24.16
2023-05-24T07:17:31.284Z,24.51
2023-05-24T07:20:03.811Z,24.06
2023-05-24T07:22:33.618Z,24.25
2023-05-24T07:25:04.382Z,24.25
2023-05-24T07:27:34.838Z,24.41
2023-05-24T07:30:09.518Z,23.93
2023-05-24T07:32:47.892Z,25.03
2023-05-24T07:35:18.487Z,24.60
2023-05-24T07:37:49.393Z,23.80
2023-05-24T07:40:19.926Z,24.30
2023-05-24T07:42:50.612Z,24.34
2023-05-24T07:45:21.228Z,24.01
2023-05-24T07:47:53.212Z,23.48
2023-05-24T07:50:24.812Z,23.19
2023-05-24T07:52:56.150Z,23.61
2023-05-24T07:55:26.605Z,24.68
2023-05-24T07:57:58.143Z,24.34
2023-05-24T08:00:29.311Z,23.67
2023-05-24T08:02:59.804Z,24.46
2023-05-24T08:05:30.505Z,24.59
2023-05-24T08:08:00.989Z,23.27
2023-05-24T08:10:31.531Z,24.22
2023-05-24T08:13:02.188Z,23.97
2023-05-24T08:15:32.747Z,24.49
2023-05-24T08:18:03.200Z,25.29
2023-05-24T08:20:37.574Z,24.78
2023-05-24T08:23:26.118Z,25.04
2023-05-24T08:25:56.698Z,25.42
2023-05-24T08:28:27.147Z,24.10
2023-05-24T08:30:58.857Z,25.06
2023-05-24T08:33:30.607Z,24.61
2023-05-24T08:36:01.067Z,25.09
2023-05-24T08:38:31.542Z,25.48
2023-05-24T08:41:02.358Z,25.06
2023-05-24T08:43:33.012Z,26.03
2023-05-24T08:46:05.266Z,25.70
2023-05-24T08:48:55.060Z,25.23
2023-05-24T08:51:26.372Z,24.92
2023-05-24T08:53:57.730Z,25.08
2023-05-24T08:56:30.492Z,25.32
2023-05-24T08:59:00.878Z,25.39
2023-05-24T09:01:34.620Z,25.90
2023-05-24T09:04:08.325Z,26.49
2023-05-24T09:06:39.228Z,25.39
2023-05-24T09:09:10.972Z,26.46
2023-05-24T09:11:44.875Z,26.04
2023-05-24T09:14:16.515Z,25.62
2023-05-24T09:16:47.127Z,25.00
2023-05-24T09:19:18.561Z,26.42
2023-05-24T09:21:51.013Z,25.76
2023-05-24T09:24:21.881Z,25.27
2023-05-24T09:26:55.559Z,25.97
2023-05-24T09:29:26.226Z,26.31
2023-05-24T09:31:59.141Z,25.75
2023-05-24T09:34:29.672Z,26.30
2023-05-24T09:37:00.181Z,26.60
2023-05-24T09:39:31.037Z,25.74
2023-05-24T09:42:01.273Z,26.26
2023-05-24T09:44:31.670Z,26.93
2023-05-24T09:47:09.119Z,25.73
2023-05-24T09:49:40.327Z,25.78
2023-05-24T09:52:10.810Z,24.63
2023-05-24T09:54:43.259Z,25.14
2023-05-24T09:57:13.758Z,26.37
2023-05-24T09:59:45.765Z,25.70
2023-05-24T10:02:17.660Z,25.24
2023-05-24T10:04:48.664Z,25.14
2023-05-24T10:07:20.016Z,24.57
2023-05-24T10:09:51.673Z,24.54
2023-05-24T10:12:24.698Z,24.59
2023-05-24T10:14:59.004Z,25.52
2023-05-24T10:17:30.400Z,24.83
2023-05-24T10:20:00.910Z,24.60
2023-05-24T10:22:32.057Z,24.69
2023-05-24T10:25:03.103Z,24.29
2023-05-24T10:27:34.895Z,25.10
2023-05-24T10:30:23.685Z,24.77
2023-05-24T10:32:55.977Z,24.43
2023-05-24T10:35:28.963Z,25.28
2023-05-24T10:37:59.614Z,24.83
2023-05-24T10:40:30.229Z,25.04
2023-05-24T10:43:00.800Z,24.82
2023-05-24T10:45:32.781Z,25.10
2023-05-24T10:48:32.013Z,25.08
2023-05-24T10:51:23.800Z,24.35
2023-05-24T10:53:54.180Z,25.11
2023-05-24T10:56:25.274Z,24.89
2023-05-24T10:59:01.282Z,25.07
2023-05-24T11:01:33.594Z,24.58
2023-05-24T11:04:18.397Z,24.35
2023-05-24T11:07:19.651Z,24.95
2023-05-24T11:09:58.478Z,25.01
2023-05-24T11:12:40.084Z,25.54
2023-05-24T11:15:14.118Z,25.87
2023-05-24T11:18:14.342Z,24.46
2023-05-24T11:21:05.487Z,24.95
2023-05-24T11:23:38.163Z,24.70
2023-05-24T11:26:09.383Z,25.32
2023-05-24T11:28:40.555Z,24.75
2023-05-24T11:31:11.546Z,24.83
2023-05-24T11:33:44.282Z,24.46
2023-05-24T11:36:14.872Z,25.59
2023-05-24T11:38:45.338Z,25.57
2023-05-24T11:41:15.948Z,25.40
2023-05-24T11:43:47.550Z,25.03
2023-05-24T11:46:21.897Z,25.30
2023-05-24T11:49:02.541Z,25.85
2023-05-24T11:51:34.742Z,24.94
2023-05-24T11:54:05.149Z,25.40
2023-05-24T11:56:35.541Z,24.95
2023-05-24T11:59:18.128Z,24.72
2023-05-24T12:01:48.726Z,25.72
2023-05-24T12:04:19.134Z,24.75
2023-05-24T12:06:49.824Z,25.79
2023-05-24T12:09:20.445Z,25.31
2023-05-24T12:11:52.556Z,25.16
2023-05-24T12:14:27.652Z,25.43
2023-05-24T12:16:58.903Z,26.05
2023-05-24T12:19:37.602Z,25.50
2023-05-24T12:22:09.642Z,25.45
2023-05-24T12:24:40.113Z,25.05
2023-05-24T12:27:11.652Z,24.20
2023-05-24T12:29:43.792Z,25.07
2023-05-24T12:32:15.096Z,25.46
2023-05-24T12:34:46.935Z,25.27
2023-05-24T12:37:17.679Z,25.38
2023-05-24T12:39:48.491Z,25.86
2023-05-24T12:42:18.865Z,24.39
2023-05-24T12:45:07.740Z,24.97
2023-05-24T12:47:38.691Z,24.49
2023-05-24T12:50:09.506Z,24.41
2023-05-24T12:52:40.301Z,24.63
2023-05-24T12:55:11.045Z,25.47
2023-05-24T12:57:42.306Z,25.04
2023-05-24T13:00:14.608Z,23.87
2023-05-24T13:02:45.286Z,25.43
2023-05-24T13:05:15.820Z,24.87
2023-05-24T13:07:47.402Z,24.80
2023-05-24T13:10:17.830Z,24.31
2023-05-24T13:12:48.930Z,24.60
2023-05-24T13:15:21.017Z,24.64
2023-05-24T13:17:51.529Z,24.71
2023-05-24T13:20:23.962Z,24.89
2023-05-24T13:22:55.125Z,24.88
2023-05-24T13:25:25.740Z,24.58
2023-05-24T13:27:56.101Z,25.13
2023-05-24T13:30:29.421Z,24.50
2023-05-24T13:33:01.025Z,24.60
2023-05-24T13:35:32.794Z,24.58
2023-05-24T13:38:03.092Z,25.09
2023-05-24T13:40:33.901Z,24.88
2023-05-24T13:43:05.411Z,24.47
2023-05-24T13:45:36.054Z,24.86
2023-05-24T13:48:07.096Z,24.24
2023-05-24T13:50:38.964Z,25.15
2023-05-24T13:53:10.446Z,25.41
2023-05-24T13:55:41.009Z,24.79
2023-05-24T13:58:12.070Z,25.02
2023-05-24T14:00:44.177Z,25.11
2023-05-24T14:03:16.241Z,24.94
2023-05-24T14:05:46.719Z,24.48
2023-05-24T14:08:17.573Z,24.19
2023-05-24T14:10:51.350Z,24.88
2023-05-24T14:14:04.721Z,24.11
2023-05-24T14:16:13.224Z,24.78
2023-05-24T14:18:44.729Z,23.74
2023-05-24T14:21:15.130Z,24.34
2023-05-24T14:24:03.597Z,23.88
2023-05-24T14:26:34.021Z,24.51
2023-05-24T14:29:04.650Z,25.11
2023-05-24T14:31:37.211Z,24.95
2023-05-24T14:34:07.741Z,25.36
2023-05-24T14:36:40.093Z,23.94
2023-05-24T14:39:09.926Z,24.31
2023-05-24T14:41:40.253Z,23.48
2023-05-24T14:44:10.695Z,24.42
2023-05-24T14:46:43.204Z,24.61
2023-05-24T14:49:13.776Z,23.99
2023-05-24T14:51:44.246Z,23.50
2023-05-24T14:54:14.679Z,23.98
2023-05-24T14:56:45.171Z,24.60
2023-05-24T14:59:16.177Z,24.35
2023-05-24T15:01:46.695Z,25.24
2023-05-24T15:04:17.419Z,24.84
2023-05-24T15:06:47.997Z,24.66
2023-05-24T15:09:18.456Z,24.48
2023-05-24T15:11:49.216Z,25.04
2023-05-24T15:14:19.813Z,24.44
2023-05-24T15:16:51.154Z,24.67
2023-05-24T15:19:21.779Z,25.05
2023-05-24T15:21:52.375Z,25.04
2023-05-24T15:24:22.802Z,24.13
2023-05-24T15:26:53.844Z,24.46
2023-05-24T15:29:24.403Z,24.11
2023-05-24T15:31:54.979Z,25.35
2023-05-24T15:34:25.460Z,24.91
2023-05-24T15:36:56.026Z,24.52
2023-05-24T15:39:26.425Z,25.02
2023-05-24T15:41:57.065Z,24.98
2023-05-24T15:44:27.466Z,24.53
2023-05-24T15:46:58.053Z,24.56
2023-05-24T15:49:28.781Z,25.66
2023-05-24T15:52:04.179Z,24.73
2023-05-24T15:54:35.359Z,24.59
2023-05-24T15:57:05.771Z,25.45
2023-05-24T15:59:38.377Z,25.02
2023-05-24T16:02:10.034Z,25.08
2023-05-24T16:04:40.864Z,24.62
2023-05-24T16:07:11.506Z,25.49
2023-05-24T16:09:41.790Z,25.18
2023-05-24T16:12:12.446Z,25.05
2023-05-24T16:14:42.834Z,25.33
2023-05-24T16:17:13.580Z,25.51
2023-05-24T16:19:44.415Z,25.34
2023-05-24T16:22:14.800Z,25.36
2023-05-24T16:24:46.324Z,25.15
2023-05-24T16:27:16.964Z,25.80
2023-05-24T16:29:48.409Z,25.61
2023-05-24T16:32:18.843Z,24.48
2023-05-24T16:34:56.911Z,25.46
2023-05-24T16:37:27.778Z,25.26
2023-05-24T16:39:58.225Z,24.96
2023-05-24T16:42:28.580Z,25.96
2023-05-24T16:44:59.091Z,25.91
2023-05-24T16:47:30.296Z,26.22
2023-05-24T16:50:00.828Z,25.11
2023-05-24T16:52:31.423Z,24.88
2023-05-24T16:55:02.062Z,25.19
2023-05-24T16:57:50.759Z,25.46
2023-05-24T17:00:21.645Z,24.60
2023-05-24T17:02:52.191Z,24.98
2023-05-24T17:05:22.868Z,25.07
2023-05-24T17:07:53.374Z,24.61
2023-05-24T17:10:23.989Z,24.83
2023-05-24T17:12:54.848Z,24.84
2023-05-24T17:15:25.341Z,25.17
2023-05-24T17:17:57.706Z,25.53
2023-05-24T17:20:28.335Z,25.42
2023-05-24T17:22:58.913Z,25.84
2023-05-24T17:25:30.419Z,25.37
2023-05-24T17:28:00.815Z,25.21
2023-05-24T17:30:31.945Z,25.34
2023-05-24T17:33:02.581Z,25.49
2023-05-24T17:35:33.126Z,25.18
2023-05-24T17:38:03.550Z,25.54
2023-05-24T17:40:34.014Z,25.57
2023-05-24T17:43:05.563Z,25.62
2023-05-24T17:45:36.117Z,25.32
2023-05-24T17:48:06.790Z,25.30
2023-05-24T17:50:37.817Z,25.55
2023-05-24T17:53:13.195Z,25.20
2023-05-24T17:55:53.720Z,25.45
2023-05-24T17:58:24.214Z,25.35
2023-05-24T18:00:54.999Z,25.29
2023-05-24T18:03:25.898Z,25.40
2023-05-24T18:05:56.521Z,25.09
2023-05-24T18:08:27.071Z,25.33
2023-05-24T18:10:57.484Z,25.20
2023-05-24T18:13:29.619Z,25.61
2023-05-24T18:16:00.005Z,25.62
2023-05-24T18:18:31.263Z,26.09
2023-05-24T18:21:02.098Z,25.61
2023-05-24T18:23:35.577Z,24.69
2023-05-24T18:26:15.045Z,25.52
2023-05-24T18:28:45.760Z,25.08
2023-05-24T18:31:16.450Z,25.25
2023-05-24T18:33:47.117Z,24.25
2023-05-24T18:36:17.575Z,25.31
2023-05-24T18:38:48.892Z,25.12
2023-05-24T18:41:19.953Z,24.95
2023-05-24T18:43:50.564Z,24.84
2023-05-24T18:46:21.067Z,25.45
2023-05-24T18:48:51.610Z,26.06
2023-05-24T18:51:22.076Z,24.80
2023-05-24T18:53:53.280Z,25.68
2023-05-24T18:56:24.385Z,25.37
2023-05-24T18:58:55.800Z,24.70
2023-05-24T19:01:26.947Z,25.42
2023-05-24T19:03:57.663Z,24.73
2023-05-24T19:06:28.196Z,25.36
2023-05-24T19:08:58.694Z,25.52
2023-05-24T19:11:29.799Z,25.52
2023-05-24T19:14:00.202Z,25.47
2023-05-24T19:16:30.886Z,25.14
2023-05-24T19:19:01.707Z,25.11
2023-05-24T19:21:34.683Z,25.28
2023-05-24T19:24:05.125Z,25.21
2023-05-24T19:26:35.555Z,24.32
2023-05-24T19:29:06.166Z,25.51
2023-05-24T19:31:37.763Z,25.38
2023-05-24T19:34:08.248Z,25.10
2023-05-24T19:36:38.820Z,26.02
2023-05-24T19:39:09.376Z,26.30
2023-05-24T19:41:40.071Z,29.41
2023-05-24T19:44:10.979Z,28.48
2023-05-24T19:46:41.364Z,27.03
2023-05-24T19:49:13.664Z,29.45
2023-05-24T19:51:44.095Z,28.08
2023-05-24T19:54:15.257Z,29.27
2023-05-24T19:56:47.279Z,28.23
2023-05-24T19:59:17.743Z,29.45
2023-05-24T20:01:48.163Z,30.04
2023-05-24T20:04:19.025Z,26.63
2023-05-24T20:06:49.715Z,26.23
2023-05-24T20:09:20.360Z,29.62
2023-05-24T20:11:50.996Z,28.96
2023-05-24T20:14:21.477Z,28.84
2023-05-24T20:16:51.886Z,27.35
2023-05-24T20:19:23.695Z,26.81
2023-05-24T20:21:54.457Z,28.20
2023-05-24T20:24:24.946Z,26.47
2023-05-24T20:26:55.345Z,29.99
2023-05-24T20:29:25.734Z,27.87
2023-05-24T20:31:56.210Z,27.65
2023-05-24T20:34:26.672Z,28.12
2023-05-24T20:36:57.214Z,27.48
2023-05-24T20:39:27.867Z,27.17
2023-05-24T20:41:58.674Z,28.68
2023-05-24T20:44:29.230Z,28.14
2023-05-24T20:46:59.653Z,26.00
2023-05-24T20:49:30.173Z,26.24
2023-05-24T20:52:00.805Z,28.65
2023-05-24T20:54:32.513Z,30.36
2023-05-24T20:57:03.539Z,28.87
2023-05-24T20:59:33.953Z,30.22
2023-05-24T21:02:04.365Z,30.16
2023-05-24T21:04:34.867Z,30.38
2023-05-24T21:07:05.409Z,28.31
2023-05-24T21:09:36.133Z,26.98
2023-05-24T21:12:07.877Z,28.66
2023-05-24T21:14:38.406Z,28.60
2023-05-24T21:17:08.829Z,28.26
2023-05-24T21:19:39.154Z,27.57
2023-05-24T21:22:09.716Z,26.83
2023-05-24T21:24:40.184Z,26.22
2023-05-24T21:27:11.016Z,25.15
2023-05-24T21:29:43.238Z,26.00
2023-05-24T21:32:32.026Z,26.85
2023-05-24T21:35:02.706Z,25.75
2023-05-24T21:37:33.169Z,25.81
2023-05-24T21:40:03.600Z,27.82
2023-05-24T21:42:34.170Z,26.00
2023-05-24T21:45:04.432Z,25.35
2023-05-24T21:47:36.885Z,25.65
2023-05-24T21:50:07.755Z,26.06
2023-05-24T21:52:38.212Z,25.77
2023-05-24T21:55:09.002Z,25.99
2023-05-24T21:57:39.697Z,25.71
2023-05-24T22:00:10.813Z,25.66
2023-05-24T22:02:41.291Z,26.01
2023-05-24T22:05:12.073Z,26.05
2023-05-24T22:08:00.618Z,25.83
2023-05-24T22:10:31.342Z,25.95
2023-05-24T22:13:02.068Z,27.59
2023-05-24T22:15:32.838Z,28.88
2023-05-24T22:18:03.395Z,28.08
2023-05-24T22:20:34.098Z,30.90
2023-05-24T22:23:04.978Z,28.26
2023-05-24T22:25:35.431Z,29.73
2023-05-24T22:28:07.018Z,30.90
2023-05-24T22:30:38.694Z,27.89
2023-05-24T22:33:09.170Z,28.21
2023-05-24T22:35:39.591Z,28.86
2023-05-24T22:38:10.176Z,25.78
2023-05-24T22:40:43.543Z,27.86
2023-05-24T22:43:13.927Z,26.13
2023-05-24T22:45:44.707Z,26.58
2023-05-24T22:48:15.394Z,26.37
2023-05-24T22:50:45.835Z,27.24
2023-05-24T22:53:18.691Z,27.30
2023-05-24T22:55:49.317Z,27.67
2023-05-24T22:58:22.999Z,25.77
2023-05-24T23:00:53.849Z,26.63
2023-05-24T23:03:24.394Z,23.47
2023-05-24T23:05:55.310Z,23.06
2023-05-24T23:08:27.208Z,26.54
2023-05-24T23:10:59.661Z,23.92
2023-05-24T23:13:34.598Z,23.56
2023-05-24T23:16:06.875Z,23.18
2023-05-24T23:18:39.173Z,24.97
2023-05-24T23:21:11.686Z,24.12
2023-05-24T23:23:42.604Z,24.39
2023-05-24T23:26:13.043Z,22.39
2023-05-24T23:28:44.804Z,23.46
2023-05-24T23:31:15.301Z,22.91
2023-05-24T23:33:45.853Z,25.50
2023-05-24T23:36:16.293Z,24.93
2023-05-24T23:38:47.188Z,27.33
2023-05-24T23:41:17.878Z,26.89
2023-05-24T23:43:48.351Z,25.45
2023-05-24T23:46:18.951Z,26.02
2023-05-24T23:48:49.436Z,24.40
2023-05-24T23:51:21.723Z,26.49
2023-05-24T23:53:52.298Z,26.32
2023-05-24T23:56:23.021Z,23.50
2023-05-24T23:58:54.581Z,25.86
